Time;durP1;ratioP1;P1;durP2;ratioP2;P2;SDS_P1;SDS_P2;PMS_P1;PMS_P2;Temp;Humidity;BMP_temperature;BMP_pressure;BME280_temperature;BME280_humidity;BME280_pressure;Samples;Min_cycle;Max_cycle;Signal;HPM_P1;HPM_P2
2023/12/08 00:00:54;;;;;;;3.17;2.10;;;19.90;31.60;;;;;;5034613;28;20041;-45
2023/12/08 00:03:20;;;;;;;3.05;2.30;;;19.90;31.60;;;;;;5035875;28;20021;-44
2023/12/08 00:05:46;;;;;;;2.72;1.80;;;19.80;31.50;;;;;;5035066;28;20040;-47
2023/12/08 00:08:12;;;;;;;2.95;1.95;;;19.80;31.50;;;;;;5031796;28;20091;-47
2023/12/08 00:10:38;;;;;;;2.92;2.05;;;19.80;31.50;;;;;;5020992;28;20025;-47
2023/12/08 00:13:04;;;;;;;3.35;2.05;;;19.80;31.50;;;;;;5035672;28;20034;-46
2023/12/08 00:15:30;;;;;;;2.83;1.95;;;19.80;31.50;;;;;;5034389;28;20460;-50
2023/12/08 00:17:56;;;;;;;2.08;1.70;;;19.80;31.40;;;;;;5034044;28;20037;-50
2023/12/08 00:20:23;;;;;;;2.42;1.52;;;19.80;31.40;;;;;;5035784;28;20348;-51
2023/12/08 00:22:50;;;;;;;2.55;1.73;;;19.80;31.40;;;;;;5035070;28;20044;-48
2023/12/08 00:25:16;;;;;;;2.35;1.77;;;19.80;31.40;;;;;;5035672;28;20025;-47
2023/12/08 00:27:42;;;;;;;2.75;1.90;;;19.80;31.40;;;;;;5017456;28;20037;-46
2023/12/08 00:30:08;;;;;;;2.92;1.70;;;19.80;31.50;;;;;;5034795;28;20104;-46
2023/12/08 00:32:34;;;;;;;2.65;1.85;;;19.80;31.40;;;;;;5034502;28;20033;-43
2023/12/08 00:35:00;;;;;;;2.47;1.77;;;19.70;31.40;;;;;;5033872;28;20026;-48
2023/12/08 00:37:26;;;;;;;2.45;1.88;;;19.80;31.40;;;;;;5034756;28;20030;-48
2023/12/08 00:39:52;;;;;;;2.30;1.58;;;19.70;31.40;;;;;;5035199;28;20040;-53
2023/12/08 00:42:18;;;;;;;2.15;1.70;;;19.70;31.40;;;;;;5034920;28;20026;-49
2023/12/08 00:44:44;;;;;;;2.17;1.90;;;19.70;31.40;;;;;;5049241;28;20170;-51
2023/12/08 00:47:10;;;;;;;1.85;1.52;;;19.70;31.40;;;;;;5055251;28;20021;-47
2023/12/08 00:49:36;;;;;;;2.40;1.70;;;19.70;32.00;;;;;;5053720;28;20028;-49
2023/12/08 00:52:01;;;;;;;2.47;1.90;;;19.70;31.40;;;;;;5054420;28;20040;-50
2023/12/08 00:54:27;;;;;;;2.03;1.65;;;19.70;31.40;;;;;;5054205;28;20094;-48
2023/12/08 00:56:53;;;;;;;2.22;1.65;;;19.70;31.40;;;;;;5053541;28;20021;-45
2023/12/08 00:59:19;;;;;;;1.95;1.40;;;19.70;31.40;;;;;;5052829;28;20057;-45
2023/12/08 01:01:45;;;;;;;2.25;1.60;;;19.70;31.40;;;;;;5054278;28;20044;-50
2023/12/08 01:04:11;;;;;;;1.70;1.48;;;19.70;31.50;;;;;;5054471;28;20021;-44
2023/12/08 01:06:37;;;;;;;1.85;1.33;;;19.70;31.40;;;;;;5052019;28;20033;-42
2023/12/08 01:09:03;;;;;;;2.05;1.60;;;19.70;31.40;;;;;;5053845;28;20037;-43
2023/12/08 01:11:29;;;;;;;2.58;1.77;;;19.70;31.50;;;;;;5054337;28;20047;-45
2023/12/08 01:13:54;;;;;;;2.47;1.70;;;19.60;31.40;;;;;;5054545;28;20032;-46
2023/12/08 01:16:20;;;;;;;2.65;1.65;;;19.60;31.40;;;;;;5036054;28;20431;-44
2023/12/08 01:18:46;;;;;;;2.45;1.75;;;19.60;31.40;;;;;;5051934;28;20418;-47
2023/12/08 01:21:12;;;;;;;2.20;1.50;;;19.70;31.50;;;;;;5053990;28;20025;-47
2023/12/08 01:23:38;;;;;;;2.10;1.73;;;19.60;31.40;;;;;;5051820;28;20041;-49
2023/12/08 01:26:08;;;;;;;2.22;1.70;;;19.70;31.50;;;;;;5054557;28;20047;-44
2023/12/08 01:28:35;;;;;;;1.80;1.50;;;19.60;31.40;;;;;;5054255;28;20079;-44
2023/12/08 01:31:00;;;;;;;1.85;1.58;;;19.60;31.40;;;;;;5053090;28;20055;-53
2023/12/08 01:33:26;;;;;;;1.38;1.27;;;19.60;31.40;;;;;;5053663;28;20068;-48
2023/12/08 01:35:52;;;;;;;2.17;1.67;;;19.60;31.40;;;;;;5051068;28;20075;-50
2023/12/08 01:38:18;;;;;;;2.03;1.48;;;19.60;31.40;;;;;;5053486;28;20048;-49
2023/12/08 01:40:44;;;;;;;2.20;1.63;;;19.60;31.40;;;;;;5054396;28;20440;-48
2023/12/08 01:43:11;;;;;;;2.20;1.73;;;19.60;31.40;;;;;;5050103;28;20067;-47
2023/12/08 01:45:39;;;;;;;2.55;1.60;;;19.60;31.40;;;;;;5052879;28;20029;-48
2023/12/08 01:48:06;;;;;;;2.47;1.50;;;19.60;31.40;;;;;;5035781;28;20029;-45
2023/12/08 01:50:32;;;;;;;2.20;1.67;;;19.60;31.40;;;;;;5053141;28;20114;-50
2023/12/08 01:52:59;;;;;;;2.40;1.83;;;19.60;31.40;;;;;;5053535;28;20048;-51
2023/12/08 01:55:25;;;;;;;1.67;1.35;;;19.60;31.40;;;;;;5052822;28;20040;-47
2023/12/08 01:57:51;;;;;;;1.60;1.30;;;19.50;31.40;;;;;;5051425;28;20116;-45
2023/12/08 02:00:18;;;;;;;2.30;1.70;;;19.50;31.30;;;;;;5050290;28;20044;-46
2023/12/08 02:02:43;;;;;;;2.17;1.58;;;19.50;31.40;;;;;;5049809;28;20096;-49
2023/12/08 02:05:10;;;;;;;2.00;1.67;;;19.50;31.30;;;;;;5051019;28;20112;-49
2023/12/08 02:07:36;;;;;;;2.25;1.50;;;19.50;31.30;;;;;;5050801;28;20104;-47
2023/12/08 02:10:02;;;;;;;2.20;1.65;;;19.50;32.00;;;;;;5050036;28;20195;-50
2023/12/08 02:12:29;;;;;;;2.88;1.83;;;19.50;31.30;;;;;;5050015;28;20040;-44
2023/12/08 02:14:55;;;;;;;2.00;1.48;;;19.50;31.30;;;;;;5053123;28;20025;-52
2023/12/08 02:17:25;;;;;;;1.75;1.42;;;19.50;31.30;;;;;;5052957;28;20038;-46
2023/12/08 02:19:51;;;;;;;1.40;1.20;;;19.50;31.30;;;;;;5049121;28;20459;-46
2023/12/08 02:22:21;;;;;;;2.22;1.40;;;19.50;31.40;;;;;;5050792;28;20029;-44
2023/12/08 02:24:47;;;;;;;1.90;1.40;;;19.50;31.30;;;;;;5053025;28;20432;-45
2023/12/08 02:27:13;;;;;;;1.90;1.40;;;19.50;31.30;;;;;;5051375;28;20051;-44
2023/12/08 02:29:39;;;;;;;1.70;1.38;;;19.50;31.30;;;;;;5053099;28;20025;-47
2023/12/08 02:32:07;;;;;;;2.28;1.30;;;19.50;31.30;;;;;;5050026;28;20044;-46
2023/12/08 02:34:34;;;;;;;1.60;1.30;;;19.50;32.00;;;;;;5050173;28;20372;-43
2023/12/08 02:37:02;;;;;;;1.98;1.42;;;19.50;31.30;;;;;;5053087;28;20094;-47
2023/12/08 02:39:29;;;;;;;1.85;1.35;;;19.50;31.30;;;;;;5051126;28;20033;-45
2023/12/08 02:41:55;;;;;;;2.13;1.60;;;19.50;32.00;;;;;;5048349;28;20091;-44
2023/12/08 02:44:20;;;;;;;2.63;1.73;;;19.40;31.30;;;;;;5036296;28;20454;-44
2023/12/08 02:46:46;;;;;;;1.73;1.40;;;19.40;31.40;;;;;;5021937;28;20449;-49
2023/12/08 02:49:12;;;;;;;1.77;1.40;;;19.40;31.40;;;;;;5025125;28;20384;-47
2023/12/08 02:51:38;;;;;;;1.95;1.52;;;19.40;31.50;;;;;;5028846;28;20026;-43
2023/12/08 02:54:04;;;;;;;1.77;1.48;;;19.40;31.50;;;;;;5024440;28;20041;-42
2023/12/08 02:56:30;;;;;;;2.58;1.88;;;19.40;31.50;;;;;;5027637;28;20029;-42
2023/12/08 02:58:56;;;;;;;1.50;1.40;;;19.40;31.50;;;;;;5011892;28;20060;-44
2023/12/08 03:01:21;;;;;;;1.80;1.60;;;19.40;31.50;;;;;;5011761;28;20017;-47
2023/12/08 03:03:47;;;;;;;2.35;1.33;;;19.40;31.60;;;;;;5031057;28;20108;-45
2023/12/08 03:06:13;;;;;;;1.98;1.48;;;19.40;31.60;;;;;;5032310;28;20108;-42
2023/12/08 03:08:39;;;;;;;1.73;1.50;;;19.40;31.60;;;;;;5025977;28;20029;-43
2023/12/08 03:11:05;;;;;;;2.72;1.67;;;19.40;31.60;;;;;;5033871;28;20509;-44
2023/12/08 03:13:31;;;;;;;2.10;1.70;;;19.40;31.60;;;;;;5021568;28;20370;-46
2023/12/08 03:15:56;;;;;;;2.22;1.48;;;19.40;31.60;;;;;;5029856;28;20033;-44
2023/12/08 03:18:22;;;;;;;1.80;1.52;;;19.40;31.70;;;;;;5033993;28;20112;-49
2023/12/08 03:20:48;;;;;;;2.28;1.60;;;19.40;31.70;;;;;;5035142;28;20036;-43
2023/12/08 03:23:14;;;;;;;1.60;1.30;;;19.40;31.70;;;;;;5028456;28;20060;-45
2023/12/08 03:25:40;;;;;;;2.13;1.60;;;19.40;31.70;;;;;;5035401;28;20078;-44
2023/12/08 03:28:05;;;;;;;2.17;1.45;;;19.40;31.80;;;;;;5039756;28;20103;-45
2023/12/08 03:30:31;;;;;;;1.90;1.33;;;19.30;31.70;;;;;;5035531;28;20033;-48
2023/12/08 03:32:57;;;;;;;1.70;1.38;;;19.40;31.80;;;;;;5013414;28;20041;-52
2023/12/08 03:35:23;;;;;;;1.83;1.42;;;19.40;31.80;;;;;;5018236;28;20369;-52
2023/12/08 03:37:49;;;;;;;2.22;1.38;;;19.30;31.80;;;;;;5035532;28;20459;-43
2023/12/08 03:40:15;;;;;;;2.70;1.77;;;19.30;31.80;;;;;;5032737;28;20034;-44
2023/12/08 03:42:40;;;;;;;1.58;1.40;;;19.30;31.90;;;;;;5028418;28;20125;-43
2023/12/08 03:45:06;;;;;;;1.80;1.40;;;19.30;31.90;;;;;;5039743;28;20125;-43
2023/12/08 03:47:32;;;;;;;1.83;1.58;;;19.30;31.90;;;;;;5039136;28;20029;-44
2023/12/08 03:49:58;;;;;;;2.10;1.63;;;19.30;32.00;;;;;;5038285;28;20048;-49
2023/12/08 03:52:25;;;;;;;2.28;1.80;;;19.30;32.00;;;;;;5036515;28;20376;-45
2023/12/08 03:54:51;;;;;;;2.13;1.58;;;19.30;32.00;;;;;;5038700;28;20025;-44
2023/12/08 03:57:17;;;;;;;1.75;1.42;;;19.30;32.00;;;;;;5036112;28;20388;-47
2023/12/08 03:59:43;;;;;;;1.60;1.40;;;19.30;32.00;;;;;;5038461;28;21482;-43
2023/12/08 04:02:09;;;;;;;2.33;1.50;;;19.30;32.10;;;;;;5020771;28;20468;-50
2023/12/08 04:04:34;;;;;;;1.80;1.42;;;19.30;32.10;;;;;;5039171;28;20017;-52
2023/12/08 04:07:00;;;;;;;1.80;1.60;;;19.30;32.10;;;;;;5038219;28;20048;-52
2023/12/08 04:09:26;;;;;;;1.33;1.20;;;19.30;32.10;;;;;;5033341;28;20109;-47
2023/12/08 04:11:52;;;;;;;1.88;1.55;;;19.30;32.10;;;;;;5034093;28;20029;-52
2023/12/08 04:14:18;;;;;;;2.22;1.48;;;19.20;32.10;;;;;;5031583;28;20033;-48
2023/12/08 04:16:44;;;;;;;2.17;1.83;;;19.20;32.10;;;;;;5035524;28;20116;-44
2023/12/08 04:19:12;;;;;;;1.65;1.55;;;19.20;32.10;;;;;;5035357;28;20026;-43
2023/12/08 04:21:38;;;;;;;1.55;1.45;;;19.20;32.20;;;;;;5034315;28;20029;-43
2023/12/08 04:24:05;;;;;;;2.15;1.55;;;19.20;32.20;;;;;;5032464;28;20057;-46
2023/12/08 04:26:31;;;;;;;2.15;1.50;;;19.20;32.20;;;;;;5033408;28;20463;-46
2023/12/08 04:28:57;;;;;;;1.77;1.50;;;19.20;32.20;;;;;;5032125;28;20112;-46
2023/12/08 04:31:23;;;;;;;2.40;1.50;;;19.20;32.20;;;;;;5032522;28;20120;-49
2023/12/08 04:33:49;;;;;;;1.75;1.20;;;19.20;32.20;;;;;;5034810;28;20095;-42
2023/12/08 04:36:14;;;;;;;1.80;1.60;;;19.20;32.20;;;;;;5000048;28;20029;-43
2023/12/08 04:38:40;;;;;;;2.33;1.63;;;19.20;32.20;;;;;;5034354;28;20026;-48
2023/12/08 04:41:06;;;;;;;2.72;1.80;;;19.20;32.30;;;;;;5017737;28;20476;-47
2023/12/08 04:43:32;;;;;;;1.77;1.42;;;19.20;32.30;;;;;;5029346;28;20053;-47
2023/12/08 04:45:58;;;;;;;2.50;1.67;;;19.20;32.30;;;;;;5034336;28;20033;-45
2023/12/08 04:48:24;;;;;;;1.88;1.55;;;19.20;32.30;;;;;;5033913;28;20029;-49
2023/12/08 04:50:54;;;;;;;2.05;1.67;;;19.20;32.40;;;;;;5035062;28;20029;-47
2023/12/08 04:53:20;;;;;;;2.47;1.73;;;19.10;32.30;;;;;;5032475;28;20041;-44
2023/12/08 04:55:46;;;;;;;1.58;1.48;;;19.20;32.40;;;;;;5030129;28;20404;-48
2023/12/08 04:58:12;;;;;;;1.90;1.58;;;19.20;32.40;;;;;;5031750;28;20467;-45
2023/12/08 05:00:38;;;;;;;1.85;1.60;;;19.20;32.40;;;;;;5034153;28;20163;-45
2023/12/08 05:03:04;;;;;;;1.80;1.55;;;19.20;32.40;;;;;;5030940;28;20410;-45
2023/12/08 05:05:30;;;;;;;2.10;1.60;;;19.20;32.50;;;;;;5031423;28;20052;-45
2023/12/08 05:07:56;;;;;;;2.25;1.63;;;19.20;32.50;;;;;;5032052;28;20032;-43
2023/12/08 05:10:21;;;;;;;2.13;1.73;;;19.20;32.50;;;;;;5032214;28;20033;-45
2023/12/08 05:12:47;;;;;;;1.58;1.48;;;19.10;32.50;;;;;;5033308;28;20072;-44
2023/12/08 05:15:13;;;;;;;2.22;1.98;;;19.20;32.50;;;;;;5034005;28;20105;-46
2023/12/08 05:17:39;;;;;;;2.35;1.73;;;19.10;32.50;;;;;;5032352;28;20384;-50
2023/12/08 05:20:06;;;;;;;2.45;1.98;;;19.10;32.50;;;;;;5030341;28;20025;-43
2023/12/08 05:22:32;;;;;;;2.10;1.70;;;19.10;32.50;;;;;;5028906;28;20025;-45
2023/12/08 05:24:57;;;;;;;2.55;1.90;;;19.10;32.50;;;;;;5034061;28;20519;-48
2023/12/08 05:27:23;;;;;;;1.75;1.60;;;19.10;32.60;;;;;;5028019;28;20036;-50
2023/12/08 05:29:49;;;;;;;2.35;1.80;;;19.10;32.60;;;;;;5033157;28;20034;-46
2023/12/08 05:32:15;;;;;;;2.22;1.95;;;19.10;32.60;;;;;;5033651;28;20361;-47
2023/12/08 05:34:41;;;;;;;1.73;1.50;;;19.10;32.70;;;;;;5033957;28;20036;-42
2023/12/08 05:37:06;;;;;;;2.00;1.35;;;19.10;32.60;;;;;;5033680;28;20021;-50
2023/12/08 05:39:32;;;;;;;1.98;1.70;;;19.10;32.70;;;;;;5028094;28;20025;-45
2023/12/08 05:41:58;;;;;;;1.80;1.63;;;19.10;32.70;;;;;;5031150;28;20113;-47
2023/12/08 05:44:24;;;;;;;2.00;1.70;;;19.10;32.70;;;;;;5033470;28;20061;-46
2023/12/08 05:46:50;;;;;;;2.78;1.90;;;19.10;32.70;;;;;;5032899;28;20057;-44
2023/12/08 05:49:17;;;;;;;2.30;1.73;;;19.10;32.70;;;;;;5032960;28;20025;-46
2023/12/08 05:51:44;;;;;;;2.00;1.70;;;19.10;32.80;;;;;;5032187;28;20029;-49
2023/12/08 05:54:10;;;;;;;2.28;2.03;;;19.10;32.80;;;;;;5033380;28;20048;-48
2023/12/08 05:56:35;;;;;;;2.03;1.77;;;19.10;32.80;;;;;;5011286;28;20025;-45
2023/12/08 05:59:02;;;;;;;2.40;1.70;;;19.10;32.80;;;;;;5027846;28;20045;-44
2023/12/08 06:01:28;;;;;;;2.00;1.80;;;19.10;32.90;;;;;;5033380;28;20045;-45
2023/12/08 06:03:54;;;;;;;2.17;1.70;;;19.00;32.90;;;;;;5030901;28;20037;-44
2023/12/08 06:06:21;;;;;;;2.22;1.73;;;19.10;32.90;;;;;;5030708;28;20032;-45
2023/12/08 06:08:46;;;;;;;2.40;1.73;;;19.00;32.90;;;;;;5033364;28;20049;-46
2023/12/08 06:11:12;;;;;;;3.70;2.05;;;19.10;32.90;;;;;;5014487;28;20521;-47
2023/12/08 06:13:38;;;;;;;2.83;1.77;;;19.00;32.90;;;;;;5015061;28;20045;-51
2023/12/08 06:16:05;;;;;;;2.22;1.92;;;19.10;33.00;;;;;;5015719;28;20109;-55
2023/12/08 06:18:31;;;;;;;2.10;1.65;;;19.10;33.00;;;;;;5032610;28;20470;-48
2023/12/08 06:20:58;;;;;;;2.13;1.70;;;19.00;32.90;;;;;;5032772;28;20041;-48
2023/12/08 06:23:24;;;;;;;2.10;1.60;;;19.10;33.00;;;;;;5030326;28;20037;-53
2023/12/08 06:25:50;;;;;;;2.53;2.13;;;19.00;33.00;;;;;;5032315;28;20033;-45
2023/12/08 06:28:15;;;;;;;2.20;2.00;;;19.00;33.00;;;;;;5029384;28;20025;-44
2023/12/08 06:30:41;;;;;;;2.40;1.92;;;19.00;33.00;;;;;;5029299;28;20025;-44
2023/12/08 06:33:07;;;;;;;2.10;1.73;;;19.00;33.00;;;;;;5031589;28;20045;-46
2023/12/08 06:35:33;;;;;;;2.53;1.80;;;19.00;33.10;;;;;;5029506;28;20029;-45
2023/12/08 06:37:59;;;;;;;2.28;1.95;;;19.00;33.10;;;;;;5032679;28;20026;-43
2023/12/08 06:40:25;;;;;;;3.00;2.00;;;19.00;33.10;;;;;;5027194;28;20025;-46
2023/12/08 06:42:51;;;;;;;2.50;2.00;;;19.00;33.10;;;;;;5032172;28;20421;-42
2023/12/08 06:45:17;;;;;;;2.50;1.88;;;19.00;33.10;;;;;;5050221;28;20045;-44
2023/12/08 06:47:43;;;;;;;2.10;1.75;;;19.00;33.10;;;;;;5048977;28;20352;-44
2023/12/08 06:50:09;;;;;;;2.22;2.03;;;19.00;33.10;;;;;;5052183;28;20025;-45
2023/12/08 06:52:35;;;;;;;2.45;1.80;;;19.00;33.20;;;;;;5052102;28;20033;-43
2023/12/08 06:55:01;;;;;;;2.92;2.20;;;19.00;33.20;;;;;;5052161;28;20049;-44
2023/12/08 06:57:27;;;;;;;2.72;2.10;;;19.00;33.20;;;;;;5051928;28;20048;-47
2023/12/08 06:59:53;;;;;;;2.30;1.88;;;19.00;33.20;;;;;;5051710;28;20025;-46
2023/12/08 07:02:19;;;;;;;2.22;2.00;;;19.00;33.30;;;;;;5051889;28;20021;-42
2023/12/08 07:04:45;;;;;;;2.35;1.92;;;19.00;33.30;;;;;;5051002;28;20017;-47
2023/12/08 07:07:11;;;;;;;3.08;2.30;;;19.00;33.40;;;;;;5051817;28;20053;-45
2023/12/08 07:09:37;;;;;;;2.05;1.63;;;19.00;33.40;;;;;;5051686;28;20021;-43
2023/12/08 07:12:04;;;;;;;2.45;2.00;;;19.00;33.40;;;;;;5052261;28;20348;-43
2023/12/08 07:14:30;;;;;;;2.40;1.90;;;19.00;33.40;;;;;;5050067;28;20040;-44
2023/12/08 07:16:56;;;;;;;2.58;2.00;;;19.00;33.40;;;;;;5046181;28;20112;-45
2023/12/08 07:19:22;;;;;;;2.50;2.22;;;19.00;33.40;;;;;;5046343;28;20108;-45
2023/12/08 07:21:54;;;;;;;2.20;1.95;;;18.90;33.40;;;;;;5044780;28;20032;-47
2023/12/08 07:24:20;;;;;;;2.53;2.25;;;19.00;33.40;;;;;;5051751;28;20025;-48
2023/12/08 07:26:46;;;;;;;2.72;1.98;;;19.00;33.50;;;;;;5051622;28;20029;-50
2023/12/08 07:29:11;;;;;;;2.42;2.17;;;19.00;33.50;;;;;;5051017;28;20021;-46
2023/12/08 07:31:37;;;;;;;3.17;2.40;;;18.90;33.40;;;;;;5049136;28;20155;-48
2023/12/08 07:34:03;;;;;;;2.75;2.15;;;18.90;33.50;;;;;;5050362;28;20414;-46
2023/12/08 07:36:29;;;;;;;3.40;2.55;;;18.90;33.50;;;;;;5049090;28;20028;-52
2023/12/08 07:38:55;;;;;;;2.47;1.98;;;18.90;33.50;;;;;;5051128;28;20036;-45
2023/12/08 07:41:21;;;;;;;3.13;2.20;;;19.00;33.60;;;;;;5047070;28;20032;-45
2023/12/08 07:43:48;;;;;;;2.20;1.98;;;18.90;33.60;;;;;;5044497;28;20049;-48
2023/12/08 07:46:14;;;;;;;2.60;2.00;;;18.90;33.60;;;;;;5030728;28;20364;-48
2023/12/08 07:48:40;;;;;;;2.10;1.70;;;18.90;33.70;;;;;;5035468;28;20030;-46
2023/12/08 07:51:06;;;;;;;2.05;1.83;;;19.00;33.80;;;;;;5033195;28;20030;-48
2023/12/08 07:53:32;;;;;;;2.45;1.90;;;18.90;33.80;;;;;;5035130;28;20045;-51
2023/12/08 07:55:58;;;;;;;3.33;1.77;;;18.90;33.90;;;;;;5031107;28;20029;-48
2023/12/08 07:58:23;;;;;;;3.50;1.83;;;19.00;34.60;;;;;;5016844;28;20026;-51
2023/12/08 08:00:50;;;;;;;2.85;1.92;;;19.00;34.00;;;;;;5033918;28;20025;-43
2023/12/08 08:03:16;;;;;;;4.15;2.15;;;19.00;34.00;;;;;;5032742;28;20056;-46
2023/12/08 08:05:42;;;;;;;2.33;1.60;;;19.10;34.20;;;;;;5032036;28;20333;-41
2023/12/08 08:08:08;;;;;;;2.47;1.58;;;19.10;34.20;;;;;;5032422;28;20044;-45
2023/12/08 08:10:34;;;;;;;2.10;1.50;;;19.10;34.20;;;;;;5032233;28;20029;-49
2023/12/08 08:13:01;;;;;;;3.50;1.73;;;19.20;34.30;;;;;;5033251;28;20379;-49
2023/12/08 08:15:27;;;;;;;2.78;1.67;;;19.20;34.40;;;;;;5032683;28;20507;-47
2023/12/08 08:17:52;;;;;;;1.98;1.50;;;19.20;34.30;;;;;;5034371;28;20029;-46
2023/12/08 08:20:19;;;;;;;2.60;1.40;;;19.30;34.40;;;;;;5033689;28;20033;-52
2023/12/08 08:22:45;;;;;;;3.35;1.70;;;19.40;34.40;;;;;;5035843;28;20030;-51
2023/12/08 08:25:11;;;;;;;2.60;1.30;;;19.40;34.40;;;;;;5034538;28;20029;-53
2023/12/08 08:27:37;;;;;;;2.80;1.40;;;19.40;34.40;;;;;;5015843;28;20045;-54
2023/12/08 08:30:04;;;;;;;1.92;1.25;;;19.50;34.50;;;;;;5031645;28;20036;-45
2023/12/08 08:32:29;;;;;;;2.47;1.48;;;19.50;34.50;;;;;;5028591;28;20177;-44
2023/12/08 08:34:55;;;;;;;2.20;1.52;;;19.50;34.50;;;;;;5034390;28;20112;-48
2023/12/08 08:37:22;;;;;;;2.30;1.58;;;19.60;34.60;;;;;;5034857;28;20026;-42
2023/12/08 08:39:49;;;;;;;2.40;1.80;;;19.60;34.50;;;;;;5034389;28;20424;-45
2023/12/08 08:42:16;;;;;;;3.03;1.55;;;19.70;34.50;;;;;;5030772;28;20026;-43
2023/12/08 08:44:41;;;;;;;2.28;1.55;;;19.70;34.50;;;;;;5030851;28;20508;-51
2023/12/08 08:47:07;;;;;;;1.60;1.40;;;19.80;34.40;;;;;;5031167;28;20060;-48
2023/12/08 08:49:33;;;;;;;2.70;1.83;;;19.80;34.40;;;;;;5034954;28;20021;-49
2023/12/08 08:51:59;;;;;;;1.65;1.50;;;19.80;34.30;;;;;;5033530;28;20084;-52
2023/12/08 08:54:25;;;;;;;3.08;1.77;;;19.80;34.30;;;;;;5035173;28;20021;-44
2023/12/08 08:56:52;;;;;;;2.20;1.90;;;19.80;34.20;;;;;;5032046;28;20104;-45
2023/12/08 08:59:18;;;;;;;3.42;1.95;;;19.90;34.30;;;;;;5030355;28;20025;-49
2023/12/08 09:01:44;;;;;;;2.42;1.75;;;19.90;34.20;;;;;;5033968;28;20043;-45
2023/12/08 09:04:10;;;;;;;3.10;2.13;;;19.90;34.20;;;;;;5029443;28;20030;-48
2023/12/08 09:06:36;;;;;;;2.25;1.73;;;20.00;34.20;;;;;;5034585;28;20112;-45
2023/12/08 09:09:04;;;;;;;2.88;1.60;;;19.90;34.10;;;;;;5031021;28;20026;-44
2023/12/08 09:11:30;;;;;;;2.67;1.70;;;20.00;34.10;;;;;;5034171;28;20029;-50
2023/12/08 09:13:56;;;;;;;2.15;1.75;;;20.00;34.10;;;;;;5035117;28;20042;-53
2023/12/08 09:16:22;;;;;;;2.67;1.67;;;20.00;34.10;;;;;;5035093;28;20095;-51
2023/12/08 09:18:48;;;;;;;2.20;1.70;;;20.00;34.10;;;;;;5035300;28;20018;-50
2023/12/08 09:21:13;;;;;;;2.80;1.92;;;20.00;34.10;;;;;;5032656;28;20033;-49
2023/12/08 09:23:39;;;;;;;2.45;1.40;;;20.00;34.10;;;;;;5034902;28;20022;-47
2023/12/08 09:26:05;;;;;;;1.85;1.42;;;20.00;34.10;;;;;;5034465;28;20475;-46
2023/12/08 09:28:31;;;;;;;1.83;1.58;;;20.10;34.10;;;;;;5031671;28;20026;-43
2023/12/08 09:30:57;;;;;;;2.20;1.48;;;20.10;34.20;;;;;;5032056;28;20033;-49
2023/12/08 09:33:23;;;;;;;3.35;1.70;;;20.10;34.10;;;;;;5034328;28;20033;-48
2023/12/08 09:35:49;;;;;;;3.22;1.90;;;20.10;34.10;;;;;;5034170;28;20159;-47
2023/12/08 09:38:15;;;;;;;2.03;1.60;;;20.10;34.10;;;;;;5029949;28;20036;-47
2023/12/08 09:40:43;;;;;;;2.03;1.80;;;20.10;34.10;;;;;;5035028;28;20017;-48
2023/12/08 09:43:22;;;;;;;2.28;1.65;;;20.10;34.10;;;;;;5034582;28;20025;-45
2023/12/08 09:45:49;;;;;;;2.65;1.77;;;20.10;34.10;;;;;;5014778;28;20030;-51
2023/12/08 09:48:17;;;;;;;2.35;1.38;;;20.10;34.20;;;;;;5034161;28;20130;-45
2023/12/08 09:50:43;;;;;;;3.45;1.95;;;20.10;34.20;;;;;;5026537;28;20025;-46
2023/12/08 09:53:10;;;;;;;2.28;1.85;;;20.10;34.20;;;;;;5029614;28;20045;-46
2023/12/08 09:55:37;;;;;;;2.95;1.70;;;20.10;34.20;;;;;;5033932;28;20037;-49
2023/12/08 09:58:04;;;;;;;3.40;1.95;;;20.10;34.20;;;;;;5031269;28;20029;-46
2023/12/08 10:00:31;;;;;;;2.70;1.60;;;20.10;34.20;;;;;;5016504;28;20043;-46
2023/12/08 10:02:57;;;;;;;2.17;1.60;;;20.10;34.30;;;;;;5032779;28;20030;-51
2023/12/08 10:05:23;;;;;;;2.97;1.70;;;20.10;34.30;;;;;;5032205;28;20391;-51
2023/12/08 10:07:50;;;;;;;2.47;1.75;;;20.10;34.30;;;;;;5033213;28;20081;-48
2023/12/08 10:10:17;;;;;;;2.33;1.80;;;20.10;34.30;;;;;;5033067;28;20030;-46
2023/12/08 10:12:43;;;;;;;2.15;1.60;;;20.10;34.30;;;;;;5026290;28;20449;-47
2023/12/08 10:15:13;;;;;;;2.38;1.60;;;20.10;34.40;;;;;;5030292;28;20096;-46
2023/12/08 10:17:47;;;;;;;2.75;1.60;;;20.20;34.60;;;;;;5033327;28;20033;-43
2023/12/08 10:20:13;;;;;;;2.47;1.48;;;20.30;34.80;;;;;;5033945;28;20079;-46
2023/12/08 10:22:51;;;;;;;2.88;1.60;;;20.40;34.90;;;;;;5030718;28;20629;-50
2023/12/08 10:25:27;;;;;;;3.25;2.10;;;20.40;35.00;;;;;;5011611;28;20411;-48
2023/12/08 10:27:54;;;;;;;3.58;1.83;;;20.50;35.10;;;;;;5027648;28;20033;-47
2023/12/08 10:30:25;;;;;;;2.80;1.55;;;20.50;35.20;;;;;;5028896;28;20021;-53
2023/12/08 10:32:51;;;;;;;2.78;1.90;;;20.40;35.20;;;;;;5011013;28;20339;-50
2023/12/08 10:35:17;;;;;;;3.15;1.70;;;20.40;35.20;;;;;;5033111;28;20044;-53
2023/12/08 10:37:44;;;;;;;3.90;2.10;;;20.40;35.20;;;;;;5033433;28;20025;-48
2023/12/08 10:40:17;;;;;;;1.90;1.33;;;20.30;35.20;;;;;;5032429;28;20017;-47
2023/12/08 10:42:45;;;;;;;2.70;1.60;;;20.30;35.20;;;;;;5013545;28;20124;-49
2023/12/08 10:45:11;;;;;;;2.67;1.77;;;20.30;35.20;;;;;;5027209;28;20457;-45
2023/12/08 10:47:43;;;;;;;2.90;1.95;;;20.30;35.30;;;;;;5033435;28;20083;-45
2023/12/08 10:50:10;;;;;;;4.00;2.40;;;20.30;35.30;;;;;;5030757;28;20021;-49
2023/12/08 10:52:39;;;;;;;3.83;2.30;;;20.20;35.20;;;;;;5012035;28;20105;-48
2023/12/08 10:55:10;;;;;;;2.83;2.03;;;20.20;35.30;;;;;;5032138;28;20175;-43
2023/12/08 10:57:37;;;;;;;3.90;2.50;;;20.20;35.30;;;;;;5031671;28;20103;-46
2023/12/08 11:00:17;;;;;;;3.88;2.38;;;20.20;35.30;;;;;;5030153;28;20044;-49
2023/12/08 11:02:47;;;;;;;4.65;2.90;;;20.30;35.40;;;;;;5029027;28;20396;-48
2023/12/08 11:05:39;;;;;;;3.67;2.70;;;20.20;35.30;;;;;;5032671;28;20026;-50
2023/12/08 11:08:14;;;;;;;4.05;2.70;;;20.30;35.40;;;;;;5030494;28;20034;-48
2023/12/08 11:10:43;;;;;;;5.45;3.22;;;20.20;35.30;;;;;;5032846;28;20045;-50
2023/12/08 11:13:19;;;;;;;4.75;2.92;;;20.20;35.30;;;;;;5031125;28;20033;-43
2023/12/08 11:15:58;;;;;;;5.82;3.22;;;20.20;35.30;;;;;;5015817;28;20365;-44
2023/12/08 11:18:29;;;;;;;6.00;3.70;;;20.30;35.40;;;;;;5014373;28;20352;-50
2023/12/08 11:20:56;;;;;;;5.93;3.47;;;20.30;35.40;;;;;;5034885;28;20037;-46
2023/12/08 11:23:22;;;;;;;5.35;3.55;;;20.20;35.40;;;;;;5037133;28;20053;-42
2023/12/08 11:25:57;;;;;;;7.20;4.45;;;20.20;35.40;;;;;;5033895;28;20026;-47
2023/12/08 11:28:46;;;;;;;6.15;4.32;;;20.30;35.50;;;;;;5032848;28;20026;-52
2023/12/08 11:31:17;;;;;;;5.85;3.95;;;20.30;35.40;;;;;;5035491;28;20029;-44
2023/12/08 11:33:53;;;;;;;5.70;4.00;;;20.30;35.50;;;;;;5017448;28;20120;-42
2023/12/08 11:36:19;;;;;;;7.30;4.22;;;20.30;35.50;;;;;;5029030;28;20033;-43
2023/12/08 11:38:45;;;;;;;5.90;4.32;;;20.20;35.40;;;;;;5034762;28;20036;-42
2023/12/08 11:41:12;;;;;;;6.63;4.28;;;20.30;35.50;;;;;;5035302;28;20502;-44
2023/12/08 11:43:44;;;;;;;6.93;4.68;;;20.30;35.50;;;;;;5022446;28;20045;-44
2023/12/08 11:46:10;;;;;;;7.65;4.80;;;20.30;35.60;;;;;;5055021;28;20033;-42
2023/12/08 11:48:37;;;;;;;8.32;5.28;;;20.30;35.60;;;;;;5039266;28;20116;-48
2023/12/08 11:51:05;;;;;;;6.95;4.90;;;20.30;35.60;;;;;;5038312;28;20064;-47
2023/12/08 11:53:57;;;;;;;7.40;4.63;;;20.30;35.60;;;;;;5030261;28;20422;-45
2023/12/08 11:56:43;;;;;;;6.93;4.90;;;20.30;35.70;;;;;;5056825;28;20440;-52
2023/12/08 11:59:21;;;;;;;7.95;5.50;;;20.30;35.80;;;;;;5056790;28;20033;-43
2023/12/08 12:01:47;;;;;;;7.50;5.15;;;20.30;35.80;;;;;;5056159;28;20300;-44
2023/12/08 12:04:13;;;;;;;8.45;5.70;;;20.30;35.80;;;;;;5053250;28;20079;-45
2023/12/08 12:06:45;;;;;;;9.57;5.80;;;20.30;35.90;;;;;;5036252;28;20025;-47
2023/12/08 12:09:13;;;;;;;8.40;5.60;;;20.30;36.00;;;;;;5056175;28;20033;-46
2023/12/08 12:11:39;;;;;;;7.35;5.05;;;20.30;36.00;;;;;;5055055;28;20033;-47
2023/12/08 12:14:09;;;;;;;8.32;5.38;;;20.30;36.00;;;;;;5053317;28;20527;-46
2023/12/08 12:16:35;;;;;;;7.15;5.38;;;20.30;36.10;;;;;;5050812;28;20103;-43
2023/12/08 12:19:03;;;;;;;8.07;5.32;;;20.30;36.10;;;;;;5053569;28;20025;-46
2023/12/08 12:21:29;;;;;;;6.90;5.18;;;20.20;36.10;;;;;;5055919;28;20021;-48
2023/12/08 12:23:55;;;;;;;8.75;5.60;;;20.20;36.20;;;;;;5055976;28;20040;-48
2023/12/08 12:26:21;;;;;;;6.72;4.72;;;20.30;36.30;;;;;;5054705;28;20039;-47
2023/12/08 12:28:48;;;;;;;8.48;5.90;;;20.20;36.30;;;;;;5031591;28;20355;-49
2023/12/08 12:31:15;;;;;;;8.45;5.63;;;20.20;36.30;;;;;;5054864;28;20108;-50
2023/12/08 12:33:43;;;;;;;8.10;5.72;;;20.20;36.30;;;;;;5055974;28;20040;-54
2023/12/08 12:36:12;;;;;;;8.73;5.93;;;20.20;36.40;;;;;;5056216;28;20025;-46
2023/12/08 12:38:39;;;;;;;6.38;4.85;;;20.20;36.40;;;;;;5056597;28;20021;-45
2023/12/08 12:41:23;;;;;;;8.80;5.88;;;20.20;36.50;;;;;;5052809;28;20033;-50
2023/12/08 12:43:55;;;;;;;7.05;4.88;;;20.20;36.60;;;;;;5050498;28;20069;-45
2023/12/08 12:46:22;;;;;;;7.90;5.28;;;20.20;36.60;;;;;;5036402;28;20037;-49